Time;durP1;ratioP1;P1;durP2;ratioP2;P2;SDS_P1;SDS_P2;PMS_P1;PMS_P2;Temp;Humidity;BMP_temperature;BMP_pressure;BME280_temperature;BME280_humidity;BME280_pressure;Samples;Min_cycle;Max_cycle;Signal;HPM_P1;HPM_P2
2021/07/04 00:01:47;;;;;;;6.47;3.75;;;;;;;19.22;55.83;99455.94;5030981;28;20393;-66
2021/07/04 00:04:13;;;;;;;6.70;3.67;;;;;;;19.22;56.18;99454.06;5032251;28;20855;-67
2021/07/04 00:06:38;;;;;;;8.02;3.53;;;;;;;19.26;55.75;99451.81;5031375;28;20033;-69
2021/07/04 00:09:04;;;;;;;4.00;3.60;;;;;;;19.35;55.76;99456.13;5030272;28;20079;-68
2021/07/04 00:11:29;;;;;;;6.55;3.65;;;;;;;19.30;55.86;99453.13;5031747;28;20517;-69
2021/07/04 00:13:55;;;;;;;5.10;3.05;;;;;;;19.33;56.21;99451.91;5032664;28;20052;-68
2021/07/04 00:16:21;;;;;;;7.40;3.00;;;;;;;19.19;56.18;99426.47;5032458;28;20397;-68
2021/07/04 00:18:46;;;;;;;5.70;3.03;;;;;;;19.07;56.31;99407.13;5031839;28;20030;-69
2021/07/04 00:21:12;;;;;;;7.57;3.70;;;;;;;19.35;56.31;99456.13;5032050;28;20041;-69
2021/07/04 00:23:37;;;;;;;4.47;3.38;;;;;;;19.33;56.30;99450.03;5032465;28;20033;-68
2021/07/04 00:26:06;;;;;;;9.52;3.90;;;;;;;19.44;56.19;99458.72;5032032;28;20026;-68
2021/07/04 00:28:32;;;;;;;5.78;3.40;;;;;;;19.33;56.33;99452.75;5031684;28;20125;-66
2021/07/04 00:31:01;;;;;;;6.07;3.35;;;;;;;19.34;56.48;99459.00;5032344;28;20044;-68
2021/07/04 00:33:29;;;;;;;6.63;3.20;;;;;;;19.54;55.54;99451.09;5032354;28;20021;-68
2021/07/04 00:35:55;;;;;;;5.32;3.47;;;;;;;19.39;56.01;99455.72;5031840;28;20104;-69
2021/07/04 00:38:20;;;;;;;7.72;3.13;;;;;;;19.27;56.30;99452.66;5031284;28;20450;-69
2021/07/04 00:40:46;;;;;;;7.18;3.63;;;;;;;19.36;56.08;99465.94;5034372;28;21104;-69
2021/07/04 00:43:12;;;;;;;4.00;3.20;;;;;;;19.45;55.65;99465.81;5051728;28;20184;-68
2021/07/04 00:45:38;;;;;;;3.63;2.85;;;;;;;19.33;55.93;99458.19;5050551;28;20064;-66
2021/07/04 00:48:04;;;;;;;4.90;3.17;;;;;;;19.23;56.30;99463.03;5049870;28;20040;-70
2021/07/04 00:50:30;;;;;;;4.43;3.05;;;;;;;19.23;56.65;99473.91;5050527;28;20047;-70
2021/07/04 00:52:58;;;;;;;5.03;3.03;;;;;;;19.23;56.50;99479.31;5052173;28;20033;-69
2021/07/04 00:55:25;;;;;;;4.30;3.25;;;;;;;19.24;56.56;99470.16;5051654;28;20056;-69
2021/07/04 00:57:51;;;;;;;8.45;3.90;;;;;;;19.26;56.45;99464.56;5051511;28;20025;-70
2021/07/04 01:00:20;;;;;;;4.50;3.17;;;;;;;19.27;56.56;99467.06;5050212;28;20408;-66
2021/07/04 01:02:45;;;;;;;4.50;3.45;;;;;;;19.27;56.72;99475.19;5052213;28;20029;-64
2021/07/04 01:05:23;;;;;;;5.00;3.13;;;;;;;19.30;56.88;99476.72;5052198;28;20532;-68
2021/07/04 01:07:50;;;;;;;9.80;3.80;;;;;;;19.26;56.96;99476.22;5048595;28;20064;-69
2021/07/04 01:10:18;;;;;;;5.43;3.63;;;;;;;19.26;57.51;99478.94;5050461;28;20473;-69
2021/07/04 01:12:46;;;;;;;7.07;3.72;;;;;;;19.24;57.73;99474.75;5050626;28;20468;-69
2021/07/04 01:15:13;;;;;;;6.18;3.95;;;;;;;19.20;58.02;99474.28;5051247;28;20036;-69
2021/07/04 01:17:39;;;;;;;5.40;3.45;;;;;;;19.22;58.01;99473.06;5050918;28;20251;-69
2021/07/04 01:20:09;;;;;;;7.72;4.20;;;;;;;19.23;58.16;99463.03;5050878;28;20087;-68
2021/07/04 01:22:38;;;;;;;8.38;3.70;;;;;;;19.22;58.27;99467.66;5050736;28;20028;-67
2021/07/04 01:25:06;;;;;;;6.72;3.88;;;;;;;19.24;58.30;99477.47;5050979;28;20029;-69
2021/07/04 01:27:32;;;;;;;4.38;3.53;;;;;;;19.29;57.61;99481.31;5032861;28;20083;-69
2021/07/04 01:29:57;;;;;;;9.02;4.05;;;;;;;19.27;57.48;99480.63;5049725;28;20033;-69
2021/07/04 01:32:23;;;;;;;5.53;3.47;;;;;;;19.20;57.28;99472.44;5049894;28;20036;-69
2021/07/04 01:34:48;;;;;;;5.47;3.80;;;;;;;19.20;57.50;99475.13;5050415;28;20031;-67
2021/07/04 01:37:15;;;;;;;7.55;3.25;;;;;;;19.26;57.42;99483.53;5051386;28;20060;-68
2021/07/04 01:39:41;;;;;;;6.78;3.50;;;;;;;19.28;57.61;99474.16;5050426;28;20477;-69
2021/07/04 01:42:06;;;;;;;6.57;3.50;;;;;;;19.32;56.94;99472.78;5049475;28;20040;-68
2021/07/04 01:44:32;;;;;;;4.28;3.35;;;;;;;19.32;56.94;99471.94;5050865;28;20508;-68
2021/07/04 01:46:57;;;;;;;7.80;3.17;;;;;;;19.30;57.09;99472.13;5049885;28;20101;-69
2021/07/04 01:49:22;;;;;;;6.07;3.35;;;;;;;19.21;57.12;99460.53;5048735;28;20033;-68
2021/07/04 01:51:48;;;;;;;6.72;3.30;;;;;;;19.31;57.12;99468.38;5033028;28;20120;-63
2021/07/04 01:54:14;;;;;;;5.88;3.42;;;;;;;19.39;56.92;99474.72;5049813;28;20037;-69
2021/07/04 01:56:40;;;;;;;5.70;3.15;;;;;;;19.36;56.81;99465.94;5049334;28;20090;-69
2021/07/04 01:59:05;;;;;;;3.85;2.88;;;;;;;19.41;56.65;99475.38;5050573;28;20037;-69
2021/07/04 02:01:31;;;;;;;9.18;3.83;;;;;;;19.41;56.72;99480.81;5049392;28;20033;-69
2021/07/04 02:03:56;;;;;;;7.18;3.50;;;;;;;19.41;56.86;99470.81;5050169;28;20074;-68
2021/07/04 02:06:22;;;;;;;4.40;3.33;;;;;;;19.43;56.92;99489.59;5050324;28;20068;-68
2021/07/04 02:08:47;;;;;;;4.53;3.47;;;;;;;19.40;57.06;99479.94;5049499;28;20107;-67
2021/07/04 02:11:13;;;;;;;5.78;3.47;;;;;;;19.25;57.04;99458.25;5050260;28;20025;-67
2021/07/04 02:13:38;;;;;;;6.10;3.45;;;;;;;19.44;56.77;99492.13;5032036;28;20040;-69
2021/07/04 02:16:04;;;;;;;4.82;3.53;;;;;;;19.46;56.46;99489.22;5049986;28;20037;-69
2021/07/04 02:18:30;;;;;;;6.30;4.00;;;;;;;19.44;56.65;99489.41;5050038;28;20032;-69
2021/07/04 02:20:56;;;;;;;3.90;3.58;;;;;;;19.49;56.31;99499.69;5053211;28;20070;-70
2021/07/04 02:23:29;;;;;;;5.22;3.58;;;;;;;19.43;56.57;99501.31;5054261;28;20117;-68
2021/07/04 02:25:57;;;;;;;5.10;3.58;;;;;;;19.43;56.46;99505.88;5054452;28;20059;-69
2021/07/04 02:28:23;;;;;;;6.30;3.22;;;;;;;19.17;57.28;99496.38;5054313;28;20033;-68
2021/07/04 02:30:52;;;;;;;5.90;3.80;;;;;;;19.13;57.96;99503.22;5053387;28;20498;-69
2021/07/04 02:33:19;;;;;;;5.55;3.42;;;;;;;19.13;57.81;99506.75;5052788;28;20044;-68
2021/07/04 02:35:48;;;;;;;6.68;3.50;;;;;;;19.27;57.40;99502.34;5053766;28;20068;-68
2021/07/04 02:38:13;;;;;;;4.53;3.40;;;;;;;19.17;57.82;99508.09;5054192;28;20025;-68
2021/07/04 02:40:40;;;;;;;3.88;3.50;;;;;;;19.17;57.95;99512.66;5053891;28;20136;-68
2021/07/04 02:43:07;;;;;;;4.78;3.40;;;;;;;19.26;57.74;99508.81;5052590;28;20029;-66
2021/07/04 02:45:32;;;;;;;8.68;3.40;;;;;;;19.15;57.84;99512.00;5053851;28;20060;-69
2021/07/04 02:47:58;;;;;;;8.90;3.90;;;;;;;19.04;58.15;99519.56;5054099;28;20067;-69
2021/07/04 02:50:24;;;;;;;6.15;3.47;;;;;;;19.00;58.45;99510.13;5054170;28;20033;-68
2021/07/04 02:52:52;;;;;;;4.95;3.50;;;;;;;18.96;59.13;99524.22;5053523;28;20135;-68
2021/07/04 02:55:19;;;;;;;5.18;3.88;;;;;;;18.97;58.73;99515.91;5052633;28;20045;-69
2021/07/04 02:57:45;;;;;;;3.72;3.13;;;;;;;18.91;59.18;99520.19;5054025;28;20043;-67
2021/07/04 03:00:13;;;;;;;4.35;3.42;;;;;;;18.98;59.29;99538.44;5052401;28;20108;-67
2021/07/04 03:02:39;;;;;;;5.28;3.53;;;;;;;18.91;59.55;99516.66;5053084;28;20036;-69
2021/07/04 03:05:06;;;;;;;6.45;3.47;;;;;;;18.99;59.31;99537.44;5053499;28;20106;-69
2021/07/04 03:07:32;;;;;;;6.35;3.47;;;;;;;19.09;59.05;99521.72;5052774;28;20033;-67
2021/07/04 03:09:57;;;;;;;5.60;3.53;;;;;;;19.02;59.16;99521.63;5053377;28;20528;-69
2021/07/04 03:12:23;;;;;;;3.55;3.22;;;;;;;18.78;59.04;99477.44;5053198;28;20098;-63
2021/07/04 03:14:49;;;;;;;3.90;3.00;;;;;;;18.96;59.57;99527.78;5052867;28;20091;-68
2021/07/04 03:17:14;;;;;;;3.47;3.05;;;;;;;19.05;59.36;99532.13;5052036;28;20055;-69
2021/07/04 03:19:40;;;;;;;5.38;3.67;;;;;;;18.77;60.35;99538.13;5053142;28;20032;-68
2021/07/04 03:22:05;;;;;;;3.60;3.03;;;;;;;18.74;60.59;99538.50;5052757;28;20120;-67
2021/07/04 03:24:31;;;;;;;4.50;3.70;;;;;;;18.77;60.53;99535.41;5052876;28;20112;-68
2021/07/04 03:26:56;;;;;;;5.65;3.60;;;;;;;18.83;60.70;99541.16;5051584;28;20511;-68
2021/07/04 03:29:22;;;;;;;4.45;3.63;;;;;;;18.79;60.53;99544.22;5052095;28;20408;-66
2021/07/04 03:31:48;;;;;;;3.70;3.40;;;;;;;18.82;60.59;99543.00;5050630;28;20029;-68
2021/07/04 03:34:13;;;;;;;4.75;3.58;;;;;;;18.87;60.60;99545.19;5050257;28;20347;-68
2021/07/04 03:36:39;;;;;;;3.50;3.15;;;;;;;18.89;60.67;99548.53;5023436;28;20474;-68
2021/07/04 03:39:05;;;;;;;5.05;3.63;;;;;;;18.91;60.64;99552.72;5031692;28;20029;-68
2021/07/04 03:41:31;;;;;;;4.45;3.60;;;;;;;18.79;61.03;99555.06;5033000;28;20030;-68
2021/07/04 03:43:59;;;;;;;13.63;3.95;;;;;;;18.82;61.10;99555.75;5031400;28;20021;-67
2021/07/04 03:46:25;;;;;;;4.07;3.00;;;;;;;18.51;61.63;99531.25;5032547;28;20057;-64
2021/07/04 03:48:51;;;;;;;5.13;2.97;;;;;;;18.54;61.77;99530.06;5033597;28;20038;-68
2021/07/04 03:51:16;;;;;;;4.20;2.88;;;;;;;18.67;62.04;99556.53;5032323;28;20040;-66
2021/07/04 03:53:41;;;;;;;4.88;3.38;;;;;;;18.74;61.88;99556.66;5032353;28;20021;-65
2021/07/04 03:56:07;;;;;;;3.60;3.25;;;;;;;18.67;61.73;99534.84;5033028;28;20083;-68
2021/07/04 03:58:32;;;;;;;4.60;3.10;;;;;;;18.88;61.41;99558.53;5032276;28;20116;-69
2021/07/04 04:00:58;;;;;;;4.05;3.03;;;;;;;19.04;60.78;99568.41;5032270;28;20076;-69
2021/07/04 04:03:24;;;;;;;5.85;3.17;;;;;;;18.96;61.38;99568.47;5033662;28;20077;-69
2021/07/04 04:05:49;;;;;;;3.63;3.00;;;;;;;19.01;61.22;99562.53;5032850;28;20056;-68
2021/07/04 04:08:15;;;;;;;6.43;2.90;;;;;;;19.18;60.42;99574.91;5031008;28;20133;-68
2021/07/04 04:10:40;;;;;;;5.28;3.80;;;;;;;19.22;60.51;99573.50;5031762;28;20040;-68
2021/07/04 04:13:06;;;;;;;6.80;3.33;;;;;;;18.99;61.16;99575.44;5030162;28;20029;-67
2021/07/04 04:15:31;;;;;;;6.55;3.38;;;;;;;19.11;60.85;99579.38;5032433;28;20552;-67
2021/07/04 04:17:58;;;;;;;4.95;3.33;;;;;;;19.02;61.21;99575.06;5032093;28;20030;-62
2021/07/04 04:20:24;;;;;;;4.18;2.80;;;;;;;18.83;62.29;99585.38;5030839;28;20037;-69
2021/07/04 04:22:50;;;;;;;5.00;3.40;;;;;;;18.90;62.04;99596.34;5032404;28;20149;-69
2021/07/04 04:25:15;;;;;;;4.50;2.90;;;;;;;18.94;61.72;99581.38;5032347;28;20535;-69
2021/07/04 04:27:41;;;;;;;6.15;3.10;;;;;;;19.04;61.66;99592.00;5030412;28;20044;-71
2021/07/04 04:30:07;;;;;;;4.22;3.03;;;;;;;19.14;61.13;99594.44;5031335;28;20033;-68
2021/07/04 04:32:33;;;;;;;3.08;2.78;;;;;;;19.22;60.85;99591.63;5032474;28;20038;-69
2021/07/04 04:34:59;;;;;;;4.85;3.28;;;;;;;19.19;60.50;99573.00;5032311;28;20033;-67
2021/07/04 04:37:24;;;;;;;3.75;3.10;;;;;;;19.33;60.48;99593.91;5031908;28;20099;-69
2021/07/04 04:39:50;;;;;;;3.38;3.08;;;;;;;19.16;61.15;99595.09;5031625;28;20025;-67
2021/07/04 04:42:15;;;;;;;5.20;3.45;;;;;;;19.19;61.28;99597.44;5031958;28;20448;-68
2021/07/04 04:44:40;;;;;;;5.50;3.25;;;;;;;19.03;61.60;99593.84;5032148;28;20056;-69
2021/07/04 04:47:06;;;;;;;7.68;3.20;;;;;;;19.00;62.00;99598.81;5030864;28;20049;-69
2021/07/04 04:49:33;;;;;;;3.30;2.83;;;;;;;19.14;61.70;99611.56;5031138;28;20049;-70
2021/07/04 04:51:59;;;;;;;4.80;2.92;;;;;;;19.16;61.85;99606.78;5031252;28;20512;-62
2021/07/04 04:54:24;;;;;;;3.40;3.05;;;;;;;19.38;61.27;99606.06;5032272;28;20125;-69
2021/07/04 04:56:50;;;;;;;8.63;3.40;;;;;;;19.35;61.11;99597.25;5031629;28;20401;-68
2021/07/04 04:59:15;;;;;;;7.60;3.20;;;;;;;19.48;60.48;99604.75;5031359;28;20029;-66
2021/07/04 05:01:41;;;;;;;6.68;3.17;;;;;;;19.50;60.43;99599.97;5030546;28;20084;-67
2021/07/04 05:04:08;;;;;;;6.00;2.88;;;;;;;19.52;60.34;99610.63;5031457;28;20022;-67
2021/07/04 05:06:34;;;;;;;5.07;3.33;;;;;;;19.46;60.69;99608.66;5030957;28;20488;-67
2021/07/04 05:09:00;;;;;;;3.78;3.13;;;;;;;19.55;60.35;99609.41;5029781;28;20030;-63
2021/07/04 05:11:25;;;;;;;9.15;3.50;;;;;;;19.53;60.64;99604.16;5031138;28;20044;-71
2021/07/04 05:13:51;;;;;;;6.20;3.25;;;;;;;19.51;60.56;99617.09;5030916;28;20053;-73
2021/07/04 05:16:17;;;;;;;6.50;3.45;;;;;;;19.37;60.92;99610.63;5029674;28;20060;-72
2021/07/04 05:18:42;;;;;;;4.13;3.05;;;;;;;19.30;61.28;99609.69;5028526;28;20428;-73
2021/07/04 05:21:08;;;;;;;4.35;3.47;;;;;;;19.51;60.53;99619.81;5030459;28;20116;-74
2021/07/04 05:23:33;;;;;;;3.42;2.97;;;;;;;19.30;61.46;99616.00;5030057;28;20466;-74
2021/07/04 05:25:59;;;;;;;3.20;2.85;;;;;;;19.44;61.43;99610.72;5031577;28;20100;-75
2021/07/04 05:28:26;;;;;;;6.18;3.22;;;;;;;19.51;60.77;99614.38;5030945;28;20026;-75
2021/07/04 05:30:52;;;;;;;5.47;2.95;;;;;;;19.67;60.26;99612.50;5029960;28;20029;-75
2021/07/04 05:33:18;;;;;;;4.20;3.15;;;;;;;19.64;60.34;99605.56;5030191;28;20087;-73
2021/07/04 05:35:43;;;;;;;5.90;3.05;;;;;;;19.70;60.12;99610.25;5030229;28;20042;-75
2021/07/04 05:38:17;;;;;;;5.25;3.38;;;;;;;19.75;60.23;99606.97;5031018;28;20116;-74
2021/07/04 05:40:45;;;;;;;10.63;3.50;;;;;;;19.70;60.05;99576.81;5031158;28;20026;-75
2021/07/04 05:43:11;;;;;;;3.15;2.72;;;;;;;19.99;59.85;99596.81;5037357;28;20407;-73
2021/07/04 05:45:36;;;;;;;4.82;2.80;;;;;;;20.10;59.42;99609.06;5038335;28;20046;-71
2021/07/04 05:48:02;;;;;;;3.97;2.85;;;;;;;20.21;59.18;99605.88;5037597;28;20102;-70
2021/07/04 05:50:28;;;;;;;4.88;2.85;;;;;;;20.30;58.99;99603.88;5040360;28;20180;-75
2021/07/04 05:52:53;;;;;;;3.95;2.85;;;;;;;20.40;58.75;99607.09;5021362;28;20036;-65
2021/07/04 05:55:19;;;;;;;4.93;3.08;;;;;;;20.41;58.56;99605.25;5018849;28;20025;-72
2021/07/04 05:57:44;;;;;;;3.40;2.40;;;;;;;20.30;58.56;99622.91;5038210;28;20433;-71
2021/07/04 06:00:11;;;;;;;6.20;3.08;;;;;;;20.22;58.86;99613.00;5040534;28;20074;-69
2021/07/04 06:02:36;;;;;;;4.68;2.80;;;;;;;20.13;58.95;99622.28;5037493;28;20438;-73
2021/07/04 06:05:03;;;;;;;2.97;2.38;;;;;;;20.41;57.66;99633.25;5037097;28;20032;-71
2021/07/04 06:07:29;;;;;;;4.85;2.50;;;;;;;20.02;58.71;99624.47;5039126;28;20831;-74
2021/07/04 06:09:54;;;;;;;4.20;2.92;;;;;;;20.04;59.19;99627.00;5038674;28;20109;-76
2021/07/04 06:12:19;;;;;;;3.03;2.40;;;;;;;20.26;58.00;99622.44;5039834;28;20466;-73
2021/07/04 06:14:45;;;;;;;6.35;2.53;;;;;;;20.32;57.88;99621.66;5038885;28;20495;-71
2021/07/04 06:17:10;;;;;;;4.80;2.65;;;;;;;20.28;58.31;99627.69;5043044;28;20039;-74
2021/07/04 06:19:36;;;;;;;3.53;2.45;;;;;;;20.31;58.33;99621.88;5050370;28;20086;-75
2021/07/04 06:22:04;;;;;;;2.60;2.38;;;;;;;20.51;57.78;99628.34;5051865;28;20083;-72
2021/07/04 06:24:29;;;;;;;2.65;2.33;;;;;;;20.76;56.87;99624.38;5049737;28;20028;-72
2021/07/04 06:26:55;;;;;;;3.50;2.05;;;;;;;20.92;55.96;99626.88;5047621;28;20029;-75
2021/07/04 06:29:20;;;;;;;5.50;2.70;;;;;;;21.02;55.58;99618.38;5047799;28;20048;-71
2021/07/04 06:31:46;;;;;;;3.35;2.58;;;;;;;21.01;54.83;99616.69;5050422;28;20114;-73
2021/07/04 06:34:12;;;;;;;5.78;2.60;;;;;;;20.90;55.61;99626.22;5048901;28;20040;-73
2021/07/04 06:36:37;;;;;;;2.53;2.17;;;;;;;21.00;55.48;99625.03;5050201;28;20029;-75
2021/07/04 06:39:03;;;;;;;5.80;2.38;;;;;;;21.06;54.61;99616.94;5050746;28;20032;-70
2021/07/04 06:41:29;;;;;;;2.80;2.08;;;;;;;21.06;54.66;99624.22;5050421;28;20025;-75
2021/07/04 06:43:54;;;;;;;3.38;2.10;;;;;;;21.20;54.66;99622.44;5048736;28;20032;-74
2021/07/04 06:46:20;;;;;;;3.20;1.90;;;;;;;21.46;53.87;99627.25;5047997;28;20500;-74
2021/07/04 06:48:45;;;;;;;4.35;2.13;;;;;;;21.57;52.67;99614.09;5049991;28;20126;-74
2021/07/04 06:51:11;;;;;;;3.28;2.08;;;;;;;21.76;52.33;99621.56;5049800;28;20100;-75
2021/07/04 06:53:37;;;;;;;3.08;2.10;;;;;;;21.80;51.91;99622.00;5049510;28;20033;-74
2021/07/04 06:56:04;;;;;;;3.15;1.85;;;;;;;21.67;51.80;99633.69;5050062;28;20531;-74
2021/07/04 06:58:29;;;;;;;5.60;2.13;;;;;;;21.50;52.69;99635.84;5050347;28;20037;-73
2021/07/04 07:00:55;;;;;;;3.47;1.90;;;;;;;21.42;53.10;99600.59;5042983;28;20394;-76
2021/07/04 07:03:20;;;;;;;3.47;1.70;;;;;;;21.68;52.57;99607.25;5029931;28;20030;-75
2021/07/04 07:05:46;;;;;;;3.45;1.95;;;;;;;21.98;51.59;99623.34;5030062;28;20388;-78
2021/07/04 07:08:11;;;;;;;2.75;1.83;;;;;;;22.17;51.09;99614.34;5032055;28;20143;-70
2021/07/04 07:10:37;;;;;;;2.67;1.92;;;;;;;22.34;50.68;99614.00;5033381;28;20030;-75
2021/07/04 07:13:03;;;;;;;4.78;1.83;;;;;;;22.51;50.09;99630.84;5033427;28;20656;-80
2021/07/04 07:15:29;;;;;;;1.83;1.52;;;;;;;22.77;49.56;99624.56;5032282;28;20037;-73
2021/07/04 07:17:55;;;;;;;3.78;1.70;;;;;;;22.86;48.80;99618.91;5032114;28;20232;-77
2021/07/04 07:20:20;;;;;;;3.60;1.60;;;;;;;22.79;48.77;99618.91;5035435;28;20028;-75
2021/07/04 07:22:46;;;;;;;4.03;2.17;;;;;;;22.95;48.23;99631.31;5046062;28;20040;-73
2021/07/04 07:25:12;;;;;;;1.90;1.40;;;;;;;22.79;47.88;99614.28;5046560;28;20026;-72
2021/07/04 07:27:40;;;;;;;2.03;1.67;;;;;;;22.75;48.53;99610.31;5042344;28;20031;-76
2021/07/04 07:30:08;;;;;;;2.47;1.60;;;;;;;23.13;47.75;99621.63;5042727;28;20052;-69
2021/07/04 07:32:36;;;;;;;1.60;1.45;;;;;;;23.62;46.69;99608.53;5055410;28;21350;-75
2021/07/04 07:35:11;;;;;;;3.05;1.42;;;;;;;24.00;45.60;99606.91;5043087;28;20051;-66
2021/07/04 07:37:36;;;;;;;2.08;1.58;;;;;;;24.46;44.57;99607.69;5042077;28;20113;-70
2021/07/04 07:40:04;;;;;;;2.10;1.55;;;;;;;24.89;43.32;99597.97;5043018;28;20107;-74
2021/07/04 07:42:30;;;;;;;1.90;1.50;;;;;;;25.19;43.31;99605.47;5042239;28;20501;-74
2021/07/04 07:44:55;;;;;;;2.88;1.38;;;;;;;25.12;42.75;99610.19;5040880;28;20133;-76
2021/07/04 07:47:21;;;;;;;1.70;1.35;;;;;;;24.71;43.42;99613.22;5042749;28;20113;-73
2021/07/04 07:49:46;;;;;;;2.30;1.48;;;;;;;24.20;43.98;99585.78;5041901;28;20480;-75
2021/07/04 07:52:12;;;;;;;1.52;1.30;;;;;;;23.79;45.43;99608.88;5027819;28;20022;-69
2021/07/04 07:54:38;;;;;;;1.95;1.60;;;;;;;23.55;45.57;99607.72;5041473;28;20028;-72
2021/07/04 07:57:04;;;;;;;2.22;1.67;;;;;;;22.98;46.71;99611.78;5039372;28;20131;-73
2021/07/04 07:59:30;;;;;;;1.77;1.67;;;;;;;22.45;47.92;99616.13;5041046;28;20095;-74
2021/07/04 08:01:57;;;;;;;2.08;1.77;;;;;;;22.16;49.21;99612.69;5044497;28;20032;-75
2021/07/04 08:04:22;;;;;;;3.45;1.60;;;;;;;22.34;49.25;99600.34;5044280;28;20057;-73
2021/07/04 08:06:48;;;;;;;3.20;1.77;;;;;;;22.83;48.07;99602.94;5042630;28;20071;-71
2021/07/04 08:09:13;;;;;;;1.83;1.45;;;;;;;23.49;46.41;99593.00;5042210;28;20472;-76
2021/07/04 08:11:39;;;;;;;2.75;1.60;;;;;;;24.81;44.05;99593.59;5041709;28;20032;-75
2021/07/04 08:14:05;;;;;;;3.92;1.55;;;;;;;25.96;40.25;99586.91;5040837;28;20472;-73
2021/07/04 08:16:31;;;;;;;1.85;1.48;;;;;;;26.31;39.27;99589.00;5038209;28;20025;-75
2021/07/04 08:18:56;;;;;;;1.70;1.30;;;;;;;26.48;39.41;99589.97;5032532;28;20879;-78
2021/07/04 08:21:22;;;;;;;1.92;1.10;;;;;;;26.66;39.18;99593.72;5032513;28;20029;-73
2021/07/04 08:23:47;;;;;;;1.98;1.55;;;;;;;26.87;38.50;99589.56;5014772;28;20060;-76
2021/07/04 08:26:13;;;;;;;2.55;1.42;;;;;;;26.89;38.16;99594.84;5014508;28;20481;-73
2021/07/04 08:28:39;;;;;;;2.63;1.45;;;;;;;26.49;38.86;99597.13;5030360;28;20041;-71
2021/07/04 08:31:06;;;;;;;4.82;1.50;;;;;;;26.32;39.46;99585.16;5029852;28;20370;-71
2021/07/04 08:33:31;;;;;;;3.92;1.63;;;;;;;26.15;40.02;99598.66;5031133;28;20075;-72
2021/07/04 08:35:57;;;;;;;2.53;1.70;;;;;;;25.90;40.71;99595.00;5014504;28;20584;-73
2021/07/04 08:38:22;;;;;;;2.78;1.30;;;;;;;25.60;40.51;99600.41;5031764;28;20030;-71
2021/07/04 08:40:50;;;;;;;1.80;1.50;;;;;;;25.02;41.56;99611.50;5029938;28;20079;-74
2021/07/04 08:43:36;;;;;;;1.92;1.50;;;;;;;24.51;42.52;99614.19;5013581;28;20231;-72
2021/07/04 08:46:04;;;;;;;4.05;1.38;;;;;;;23.80;44.12;99618.75;5030864;28;20046;-70
2021/07/04 08:48:30;;;;;;;1.70;1.30;;;;;;;23.41;45.14;99607.75;5030156;28;20049;-72
2021/07/04 08:50:55;;;;;;;4.20;1.65;;;;;;;23.32;45.24;99615.31;5031444;28;20361;-69
2021/07/04 08:53:21;;;;;;;2.40;1.38;;;;;;;22.92;46.68;99604.44;5032098;28;20036;-71
2021/07/04 08:55:47;;;;;;;2.10;1.40;;;;;;;23.01;46.66;99614.06;5030365;28;20026;-71
2021/07/04 08:58:19;;;;;;;4.18;1.42;;;;;;;23.42;46.14;99614.06;5030840;28;20034;-71
2021/07/04 09:01:05;;;;;;;4.55;1.77;;;;;;;23.51;45.27;99601.84;5030177;28;20041;-71
2021/07/04 09:03:30;;;;;;;3.40;1.80;;;;;;;23.33;45.71;99611.53;5029239;28;20033;-71
2021/07/04 09:05:56;;;;;;;1.70;1.60;;;;;;;23.48;45.35;99605.81;5013515;28;20470;-71
2021/07/04 09:08:22;;;;;;;2.00;1.50;;;;;;;23.18;46.20;99608.19;5014047;28;20100;-67
2021/07/04 09:11:09;;;;;;;2.45;1.48;;;;;;;23.44;45.96;99620.16;5039827;28;20099;-67
2021/07/04 09:13:35;;;;;;;2.15;1.70;;;;;;;23.48;45.66;99607.72;5041944;28;20441;-65
2021/07/04 09:16:07;;;;;;;1.35;1.25;;;;;;;23.53;45.70;99627.03;5021753;28;20080;-66
2021/07/04 09:18:33;;;;;;;4.20;1.40;;;;;;;23.45;45.83;99619.09;5025939;28;20147;-66
2021/07/04 09:20:59;;;;;;;1.80;1.40;;;;;;;23.71;45.16;99606.41;5039090;28;20120;-66
2021/07/04 09:23:35;;;;;;;5.32;1.90;;;;;;;23.86;45.20;99617.88;5037282;28;20065;-65
2021/07/04 09:26:00;;;;;;;2.95;1.60;;;;;;;23.90;45.29;99608.22;5040124;28;21060;-68
2021/07/04 09:28:26;;;;;;;2.03;1.83;;;;;;;24.07;44.63;99610.47;5018162;28;20755;-64
2021/07/04 09:30:56;;;;;;;2.47;1.70;;;;;;;24.11;44.55;99583.53;5039279;28;20468;-63
2021/07/04 09:33:26;;;;;;;2.63;1.70;;;;;;;23.94;44.85;99594.94;5027957;28;20036;-64
2021/07/04 09:35:56;;;;;;;4.22;1.40;;;;;;;23.88;44.90;99610.34;5041394;28;20047;-65
2021/07/04 09:38:29;;;;;;;1.88;1.77;;;;;;;23.77;45.17;99600.06;5038406;28;20036;-64
2021/07/04 09:40:55;;;;;;;3.05;1.63;;;;;;;23.73;45.71;99601.56;5038624;28;20416;-64
2021/07/04 09:43:21;;;;;;;3.67;1.65;;;;;;;23.73;45.85;99593.34;5038458;28;20027;-62
2021/07/04 09:46:04;;;;;;;1.42;1.27;;;;;;;24.02;45.43;99599.34;5042673;28;20052;-65
2021/07/04 09:48:31;;;;;;;1.60;1.50;;;;;;;23.73;45.14;99568.75;5032204;28;20052;-69
2021/07/04 09:51:00;;;;;;;1.92;1.73;;;;;;;23.70;45.63;99604.72;5052734;28;20033;-69
2021/07/04 09:53:36;;;;;;;2.17;1.30;;;;;;;23.63;46.01;99605.59;5065032;28;20391;-68
2021/07/04 09:56:18;;;;;;;1.63;1.42;;;;;;;23.67;45.86;99607.88;5068794;28;20040;-69
2021/07/04 09:58:49;;;;;;;1.70;1.60;;;;;;;23.55;45.96;99604.97;5069273;28;20035;-68
2021/07/04 10:01:39;;;;;;;1.52;1.42;;;;;;;23.49;46.46;99617.59;5070523;28;20121;-70
2021/07/04 10:04:25;;;;;;;1.77;1.50;;;;;;;23.32;47.09;99615.31;5068996;28;20040;-68
2021/07/04 10:06:52;;;;;;;3.75;1.60;;;;;;;23.06;47.35;99589.69;5046777;28;20047;-69
2021/07/04 10:09:19;;;;;;;1.60;1.45;;;;;;;23.40;47.36;99607.97;5049404;28;20033;-69
2021/07/04 10:11:46;;;;;;;2.10;1.23;;;;;;;23.53;46.58;99597.00;5026883;28;20040;-69
2021/07/04 10:14:12;;;;;;;2.75;1.40;;;;;;;23.42;46.53;99573.91;5032062;28;20074;-68
2021/07/04 10:16:41;;;;;;;2.70;1.50;;;;;;;23.54;46.58;99606.88;5047945;28;20025;-67
2021/07/04 10:19:07;;;;;;;2.28;1.65;;;;;;;23.48;47.14;99607.72;5032334;28;20044;-68
2021/07/04 10:21:34;;;;;;;2.22;1.90;;;;;;;23.70;47.00;99607.44;5028151;28;20032;-68
2021/07/04 10:24:00;;;;;;;2.50;1.70;;;;;;;23.85;46.33;99593.50;5027802;28;20178;-67
2021/07/04 10:26:27;;;;;;;1.70;1.58;;;;;;;24.17;46.02;99604.53;5027739;28;20120;-67
2021/07/04 10:28:58;;;;;;;4.22;1.65;;;;;;;24.56;44.77;99601.75;5028326;28;20034;-68
2021/07/04 10:31:24;;;;;;;2.47;1.85;;;;;;;24.88;44.35;99593.53;5029105;28;20557;-68
2021/07/04 10:34:09;;;;;;;3.20;2.00;;;;;;;25.39;43.46;99599.78;5029936;28;20068;-68
2021/07/04 10:36:57;;;;;;;2.97;1.92;;;;;;;25.73;43.03;99599.41;5029791;28;20033;-68
2021/07/04 10:39:23;;;;;;;1.75;1.60;;;;;;;25.90;42.44;99595.00;5030228;28;20548;-67
2021/07/04 10:42:01;;;;;;;2.20;2.00;;;;;;;26.07;41.57;99583.38;5035122;28;20029;-67
2021/07/04 10:44:43;;;;;;;2.20;1.60;;;;;;;26.33;41.69;99597.81;5040678;28;20112;-67
2021/07/04 10:47:16;;;;;;;3.25;1.98;;;;;;;26.41;41.14;99602.97;5034312;28;20164;-68
2021/07/04 10:50:12;;;;;;;2.00;1.90;;;;;;;26.29;41.58;99596.63;5033062;28;20485;-67
2021/07/04 10:52:40;;;;;;;1.95;1.75;;;;;;;26.30;41.36;99601.03;5033830;28;20206;-67
2021/07/04 10:55:27;;;;;;;3.13;1.75;;;;;;;26.25;41.43;99606.38;5034412;28;20455;-68
2021/07/04 10:58:00;;;;;;;1.98;1.60;;;;;;;26.08;42.16;99610.56;5047626;28;20060;-65
2021/07/04 11:00:39;;;;;;;2.05;1.83;;;;;;;25.93;43.02;99610.97;5042235;28;20114;-67
2021/07/04 11:03:25;;;;;;;2.75;2.30;;;;;;;25.50;43.19;99612.75;5042550;28;20132;-67
2021/07/04 11:05:51;;;;;;;2.58;2.38;;;;;;;24.98;44.11;99610.28;5033794;28;20060;-68
2021/07/04 11:08:27;;;;;;;2.53;2.17;;;;;;;24.54;45.68;99614.81;5037289;28;20029;-69
2021/07/04 11:10:55;;;;;;;5.03;2.22;;;;;;;24.32;46.11;99609.69;5040279;28;20596;-70
2021/07/04 11:13:20;;;;;;;3.78;2.03;;;;;;;24.29;46.07;99605.53;5038816;28;20021;-69
2021/07/04 11:15:49;;;;;;;5.18;1.92;;;;;;;24.04;47.41;99610.91;5041769;28;20600;-68
2021/07/04 11:18:21;;;;;;;5.30;2.58;;;;;;;23.93;47.26;99607.78;5025530;28;20434;-69
2021/07/04 11:20:49;;;;;;;4.95;2.03;;;;;;;23.86;48.04;99604.22;5041577;28;20033;-67
2021/07/04 11:23:24;;;;;;;2.17;1.77;;;;;;;24.05;47.77;99598.91;5027660;28;20489;-69
2021/07/04 11:25:59;;;;;;;;;;;;;;;24.62;45.88;99598.16;5024544;28;20029;-68
2021/07/04 11:28:30;;;;;;;3.55;2.00;;;;;;;24.68;45.95;99599.97;5040592;28;19928;-70
2021/07/04 11:30:58;;;;;;;5.70;2.20;;;;;;;24.59;46.30;99601.28;5041201;28;20037;-68
2021/07/04 11:33:36;;;;;;;5.63;3.63;;;;;;;24.58;46.79;99592.25;5041319;28;20043;-70
2021/07/04 11:36:09;;;;;;;4.03;3.08;;;;;;;24.82;45.77;99595.25;5026294;28;20176;-71